Time;durP1;ratioP1;P1;durP2;ratioP2;P2;SDS_P1;SDS_P2;PMS_P1;PMS_P2;Temp;Humidity;BMP_temperature;BMP_pressure;BME280_temperature;BME280_humidity;BME280_pressure;Samples;Min_cycle;Max_cycle;Signal;HPM_P1;HPM_P2
2023/10/14 00:01:14;;;;;;;12.60;2.17;;;14.30;99.90;;;;;;4976370;28;20050;-86
2023/10/14 00:03:45;;;;;;;9.60;2.40;;;14.20;99.90;;;;;;4976363;28;20463;-86
2023/10/14 00:06:12;;;;;;;9.83;1.83;;;14.20;99.90;;;;;;4976052;28;20917;-86
2023/10/14 00:08:58;;;;;;;14.00;2.13;;;14.20;99.90;;;;;;4976323;28;20417;-86
2023/10/14 00:11:35;;;;;;;15.50;2.90;;;14.10;99.90;;;;;;4976354;28;20057;-85
2023/10/14 00:14:09;;;;;;;8.10;1.90;;;14.10;99.90;;;;;;4975822;28;20054;-84
2023/10/14 00:16:41;;;;;;;13.40;2.63;;;14.00;99.90;;;;;;4976064;28;20510;-85
2023/10/14 00:19:09;;;;;;;13.40;2.20;;;13.90;99.90;;;;;;4975568;28;20054;-86
2023/10/14 00:21:36;;;;;;;9.07;2.70;;;13.90;99.90;;;;;;4975601;28;20552;-86
2023/10/14 00:24:04;;;;;;;9.03;2.07;;;13.90;99.90;;;;;;4975667;28;20073;-86
2023/10/14 00:26:31;;;;;;;13.50;3.27;;;13.90;99.90;;;;;;4975871;28;20050;-86
2023/10/14 00:29:11;;;;;;;14.20;2.53;;;13.90;99.90;;;;;;4975469;28;20046;-86
2023/10/14 00:31:36;;;;;;;15.50;2.67;;;13.90;99.90;;;;;;4975815;28;20498;-86
2023/10/14 00:34:03;;;;;;;12.67;3.10;;;13.80;99.90;;;;;;4974291;28;20097;-87
2023/10/14 00:36:31;;;;;;;12.87;2.53;;;13.80;99.90;;;;;;4975776;28;20084;-87
2023/10/14 00:38:57;;;;;;;11.07;2.33;;;13.80;99.90;;;;;;4975440;28;20047;-87
2023/10/14 00:41:27;;;;;;;13.03;2.77;;;13.70;99.90;;;;;;4975665;28;20380;-87
2023/10/14 00:43:56;;;;;;;16.67;3.17;;;13.70;99.90;;;;;;4975504;28;20051;-87
2023/10/14 00:46:23;;;;;;;12.37;3.03;;;13.60;99.90;;;;;;4981565;28;20443;-87
2023/10/14 00:48:58;;;;;;;13.20;3.03;;;13.50;99.90;;;;;;4993724;28;20085;-88
2023/10/14 00:51:26;;;;;;;14.23;2.72;;;13.40;99.90;;;;;;4995011;28;20105;-88
2023/10/14 00:53:52;;;;;;;18.90;2.93;;;13.40;99.90;;;;;;4993762;28;20050;-88
2023/10/14 00:56:31;;;;;;;15.13;2.93;;;13.40;99.90;;;;;;4999730;28;20050;-88
2023/10/14 00:59:03;;;;;;;10.60;2.83;;;13.30;99.90;;;;;;4993682;28;20053;-81
2023/10/14 01:01:48;;;;;;;11.20;2.37;;;13.20;99.90;;;;;;4994958;28;20478;-88
2023/10/14 01:04:22;;;;;;;13.40;3.15;;;13.10;99.90;;;;;;4994564;28;20046;-88
2023/10/14 01:07:13;;;;;;;;;;;13.10;99.90;;;;;;4995260;28;20390;-88
2023/10/14 01:12:37;;;;;;;18.47;3.33;;;13.00;99.90;;;;;;4994194;28;20054;-88
2023/10/14 01:15:20;;;;;;;10.47;2.20;;;13.10;99.90;;;;;;4993989;28;20133;-88
2023/10/14 01:17:46;;;;;;;13.27;2.97;;;13.00;99.90;;;;;;4994313;28;20125;-88
2023/10/14 01:22:43;;;;;;;13.47;2.67;;;13.00;99.90;;;;;;4994266;28;20054;-89
2023/10/14 01:25:15;;;;;;;18.50;3.30;;;13.00;99.90;;;;;;4992997;28;20089;-88
2023/10/14 01:27:44;;;;;;;12.47;2.90;;;13.00;99.90;;;;;;4994229;28;20054;-88
2023/10/14 01:30:18;;;;;;;13.73;3.10;;;13.00;99.90;;;;;;4993900;28;20100;-88
2023/10/14 01:35:31;;;;;;;12.80;3.20;;;13.00;99.90;;;;;;4993906;28;20468;-88
2023/10/14 01:38:01;;;;;;;14.32;2.53;;;13.00;99.90;;;;;;4994225;28;20129;-89
2023/10/14 01:40:41;;;;;;;13.37;2.87;;;12.90;99.90;;;;;;4993953;28;20490;-88
2023/10/14 01:43:07;;;;;;;15.43;3.00;;;12.90;99.90;;;;;;4992415;28;20047;-89
2023/10/14 01:45:47;;;;;;;13.23;2.80;;;12.90;99.90;;;;;;4993966;28;20053;-89
2023/10/14 01:48:14;;;;;;;11.17;3.07;;;12.80;99.90;;;;;;4993747;28;20403;-88
2023/10/14 01:50:46;;;;;;;12.83;2.60;;;12.80;99.90;;;;;;4993898;28;20053;-89
2023/10/14 01:53:31;;;;;;;12.17;2.93;;;12.70;99.90;;;;;;4992672;28;20079;-88
2023/10/14 01:56:00;;;;;;;12.97;2.43;;;12.70;99.90;;;;;;4993941;28;20046;-88
2023/10/14 01:58:29;;;;;;;13.93;2.17;;;12.60;99.90;;;;;;4993478;28;20057;-89
2023/10/14 02:03:48;;;;;;;11.83;3.17;;;12.60;99.90;;;;;;4993579;28;20487;-88
2023/10/14 02:06:18;;;;;;;12.33;2.73;;;12.50;99.90;;;;;;4992082;28;20050;-89
2023/10/14 02:08:46;;;;;;;14.23;2.73;;;12.50;99.90;;;;;;4993705;28;20125;-88
2023/10/14 02:11:12;;;;;;;14.53;3.27;;;12.50;99.90;;;;;;4992216;28;20296;-86
2023/10/14 02:13:38;;;;;;;14.53;2.87;;;12.50;99.90;;;;;;4992527;28;20050;-86
2023/10/14 02:16:07;;;;;;;13.93;3.10;;;12.50;99.90;;;;;;4993398;28;20478;-84
2023/10/14 02:18:36;;;;;;;10.37;2.00;;;12.50;99.90;;;;;;4993626;28;20061;-86
2023/10/14 02:21:06;;;;;;;18.03;2.83;;;12.50;99.90;;;;;;4989614;28;20061;-87
2023/10/14 02:23:47;;;;;;;15.53;3.33;;;12.50;99.90;;;;;;4992285;28;20054;-86
2023/10/14 02:26:25;;;;;;;15.47;2.93;;;12.50;99.90;;;;;;4993212;28;20100;-86
2023/10/14 02:28:55;;;;;;;9.50;2.90;;;12.50;99.90;;;;;;4993406;28;20401;-86
2023/10/14 02:31:35;;;;;;;11.73;2.40;;;12.50;99.90;;;;;;4993202;28;20050;-87
2023/10/14 02:34:08;;;;;;;18.83;2.80;;;12.50;99.90;;;;;;4993452;28;20039;-87
2023/10/14 02:36:48;;;;;;;17.30;2.83;;;12.40;99.90;;;;;;4993344;28;20130;-87
2023/10/14 02:39:14;;;;;;;12.77;3.07;;;12.40;99.90;;;;;;4991875;28;20046;-87
2023/10/14 02:41:43;;;;;;;14.03;2.53;;;12.40;99.90;;;;;;4993373;28;20468;-87
2023/10/14 02:46:47;;;;;;;13.47;2.40;;;12.40;99.90;;;;;;4993177;28;20424;-86
2023/10/14 02:49:18;;;;;;;16.47;3.10;;;12.30;99.90;;;;;;4993039;28;20137;-86
2023/10/14 02:51:45;;;;;;;16.43;3.10;;;12.30;99.90;;;;;;4993056;28;20286;-86
2023/10/14 02:54:15;;;;;;;12.13;2.07;;;12.20;99.90;;;;;;4993104;28;20066;-86
2023/10/14 02:59:17;;;;;;;13.32;3.42;;;12.20;99.90;;;;;;4998858;28;20817;-87
2023/10/14 03:01:44;;;;;;;12.70;2.37;;;12.10;99.90;;;;;;4993618;28;20065;-87
2023/10/14 03:04:11;;;;;;;15.70;3.60;;;12.10;99.90;;;;;;4992882;28;20788;-86
2023/10/14 03:06:46;;;;;;;10.30;2.40;;;12.20;99.90;;;;;;4991925;28;20638;-87
2023/10/14 03:09:18;;;;;;;11.30;2.55;;;12.00;99.90;;;;;;4992005;28;20089;-85
2023/10/14 03:11:45;;;;;;;13.40;2.70;;;12.10;99.90;;;;;;4992995;28;20486;-87
2023/10/14 03:14:11;;;;;;;13.40;3.03;;;12.10;99.90;;;;;;4993097;28;20364;-88
2023/10/14 03:16:36;;;;;;;13.27;2.30;;;12.10;99.90;;;;;;4992834;28;20412;-87
2023/10/14 03:19:03;;;;;;;14.03;2.83;;;12.10;99.90;;;;;;4996108;28;20050;-88
2023/10/14 03:21:30;;;;;;;13.00;3.03;;;12.00;99.90;;;;;;4978778;28;20063;-89
2023/10/14 03:23:57;;;;;;;18.73;3.00;;;12.10;99.90;;;;;;4995407;28;20875;-88
2023/10/14 03:26:28;;;;;;;15.03;2.80;;;12.10;99.90;;;;;;4995115;28;20061;-88
2023/10/14 03:28:53;;;;;;;16.97;2.90;;;12.10;99.90;;;;;;4996188;28;20277;-88
2023/10/14 03:31:19;;;;;;;14.10;2.90;;;12.10;99.90;;;;;;4994628;28;20293;-88
2023/10/14 03:33:46;;;;;;;12.70;3.40;;;12.10;99.90;;;;;;4996389;28;20073;-88
2023/10/14 03:36:15;;;;;;;18.37;3.40;;;12.00;99.90;;;;;;4996296;28;20101;-88
2023/10/14 03:38:46;;;;;;;17.70;3.13;;;12.00;99.90;;;;;;4996497;28;20422;-88
2023/10/14 03:41:20;;;;;;;13.77;2.83;;;11.90;99.90;;;;;;4996428;28;20281;-88
2023/10/14 03:46:15;;;;;;;14.87;2.83;;;11.80;99.90;;;;;;4995874;28;20521;-88
2023/10/14 03:48:47;;;;;;;14.07;3.20;;;11.90;99.90;;;;;;4995937;28;20277;-88
2023/10/14 03:51:30;;;;;;;19.03;2.90;;;11.80;99.90;;;;;;4996127;28;20273;-88
2023/10/14 03:53:57;;;;;;;16.40;3.07;;;11.80;99.90;;;;;;4995905;28;20288;-87
2023/10/14 03:56:27;;;;;;;15.60;2.73;;;11.80;99.90;;;;;;4995550;28;20312;-87
2023/10/14 03:58:57;;;;;;;13.60;2.60;;;11.80;99.90;;;;;;4994719;28;20365;-88
2023/10/14 04:01:33;;;;;;;17.43;2.53;;;11.80;99.90;;;;;;4995679;28;20285;-88
2023/10/14 04:04:01;;;;;;;12.30;1.97;;;11.80;99.90;;;;;;4995748;28;20408;-88
2023/10/14 04:06:27;;;;;;;10.17;2.53;;;11.80;99.90;;;;;;4995377;28;20317;-87
2023/10/14 04:08:54;;;;;;;11.27;1.90;;;11.80;99.90;;;;;;4995424;28;20372;-87
2023/10/14 04:11:35;;;;;;;13.37;1.97;;;11.80;99.90;;;;;;4995337;28;20050;-86
2023/10/14 04:14:02;;;;;;;15.23;3.00;;;11.80;99.90;;;;;;4995525;28;20280;-88
2023/10/14 04:16:47;;;;;;;13.57;2.60;;;11.80;99.90;;;;;;4995189;28;20290;-88
2023/10/14 04:19:27;;;;;;;12.97;2.70;;;11.70;99.90;;;;;;4993977;28;20281;-87
2023/10/14 04:22:00;;;;;;;9.33;2.73;;;11.70;99.90;;;;;;4995299;28;20779;-88
2023/10/14 04:29:51;;;;;;;13.77;2.67;;;11.60;99.90;;;;;;4994475;28;20417;-88
2023/10/14 04:32:27;;;;;;;19.02;3.50;;;11.60;99.90;;;;;;4995669;28;20305;-88
2023/10/14 04:34:55;;;;;;;14.93;2.80;;;11.60;99.90;;;;;;4995586;28;20053;-88
2023/10/14 04:37:21;;;;;;;15.53;3.13;;;11.60;99.90;;;;;;4995291;28;20368;-88
2023/10/14 04:39:48;;;;;;;17.20;2.77;;;11.60;99.90;;;;;;4995181;28;20360;-88
2023/10/14 04:44:55;;;;;;;14.90;2.50;;;11.60;99.90;;;;;;4994768;28;20289;-88
2023/10/14 04:47:35;;;;;;;13.30;3.23;;;11.60;99.90;;;;;;4994201;28;20286;-87
2023/10/14 04:50:14;;;;;;;20.70;4.23;;;11.50;99.90;;;;;;4994996;28;20637;-87
2023/10/14 04:52:48;;;;;;;17.73;3.43;;;11.50;99.90;;;;;;4994633;28;20331;-88
2023/10/14 04:55:32;;;;;;;17.30;4.27;;;11.50;99.90;;;;;;4990188;28;20278;-88
2023/10/14 05:00:43;;;;;;;19.53;3.17;;;11.50;99.90;;;;;;4975703;28;20318;-88
2023/10/14 05:03:13;;;;;;;15.90;2.80;;;11.50;99.90;;;;;;4980857;28;20294;-88
2023/10/14 05:08:27;;;;;;;15.50;2.77;;;11.50;99.90;;;;;;4974056;28;20294;-86
2023/10/14 05:10:53;;;;;;;14.67;3.13;;;11.50;99.90;;;;;;4975212;28;20278;-85
2023/10/14 05:13:33;;;;;;;19.53;4.23;;;11.50;99.90;;;;;;4974844;28;20278;-87
2023/10/14 05:19:00;;;;;;;14.10;2.80;;;11.50;99.90;;;;;;4974689;28;20286;-88
2023/10/14 05:21:36;;;;;;;14.43;2.70;;;11.50;99.90;;;;;;4974658;28;20370;-89
2023/10/14 05:24:09;;;;;;;12.10;2.90;;;11.40;99.90;;;;;;4974682;28;20389;-89
2023/10/14 05:26:58;;;;;;;13.90;2.57;;;11.40;99.90;;;;;;4974681;28;20300;-88
2023/10/14 05:29:26;;;;;;;17.73;2.87;;;11.40;99.90;;;;;;4974833;28;20332;-88
2023/10/14 05:31:52;;;;;;;12.90;2.90;;;11.40;99.90;;;;;;4974404;28;20290;-89
2023/10/14 05:34:21;;;;;;;19.97;3.20;;;11.40;99.90;;;;;;4973726;28;20294;-89
2023/10/14 05:36:52;;;;;;;14.70;3.37;;;11.40;99.90;;;;;;4974447;28;20290;-88
2023/10/14 05:39:18;;;;;;;18.53;2.90;;;11.40;99.90;;;;;;4973910;28;20369;-89
2023/10/14 05:41:48;;;;;;;17.67;2.77;;;11.40;99.90;;;;;;4973805;28;20341;-89
2023/10/14 05:44:14;;;;;;;20.13;3.17;;;11.30;99.90;;;;;;4974401;28;20285;-89
2023/10/14 05:46:41;;;;;;;17.17;3.23;;;11.30;99.90;;;;;;4974177;28;20282;-90
2023/10/14 05:49:07;;;;;;;14.27;3.10;;;11.30;99.90;;;;;;4974552;28;20293;-88
2023/10/14 05:51:33;;;;;;;19.23;2.97;;;11.30;99.90;;;;;;4973369;28;20282;-88
2023/10/14 05:53:59;;;;;;;14.50;2.93;;;11.30;99.90;;;;;;4974440;28;20344;-88
2023/10/14 05:56:28;;;;;;;19.23;4.73;;;11.30;99.90;;;;;;4973599;28;20054;-89
2023/10/14 05:58:54;;;;;;;16.27;3.07;;;11.30;99.90;;;;;;4974060;28;20055;-87
2023/10/14 06:01:19;;;;;;;14.23;2.57;;;11.30;99.90;;;;;;4974131;28;20367;-87
2023/10/14 06:03:46;;;;;;;16.80;2.90;;;11.30;99.90;;;;;;4974015;28;20384;-87
2023/10/14 06:06:16;;;;;;;16.30;2.77;;;11.20;99.90;;;;;;4974325;28;20408;-87
2023/10/14 06:08:49;;;;;;;15.73;2.83;;;11.20;99.90;;;;;;4973232;28;20297;-88
2023/10/14 06:11:16;;;;;;;16.67;4.00;;;11.20;99.90;;;;;;4974431;28;20285;-88
2023/10/14 06:13:43;;;;;;;12.90;2.53;;;11.30;99.90;;;;;;4972919;28;20840;-88
2023/10/14 06:16:13;;;;;;;15.43;3.47;;;11.20;99.90;;;;;;4973998;28;20353;-88
2023/10/14 06:18:40;;;;;;;12.57;2.97;;;11.30;99.90;;;;;;4974073;28;20361;-88
2023/10/14 06:21:08;;;;;;;15.10;2.83;;;11.20;99.90;;;;;;4972961;28;20694;-88
2023/10/14 06:23:34;;;;;;;15.97;2.70;;;11.20;99.90;;;;;;4972714;28;20789;-81
2023/10/14 06:26:00;;;;;;;13.93;2.67;;;11.20;99.90;;;;;;4974121;28;20361;-88
2023/10/14 06:28:28;;;;;;;16.20;3.67;;;11.30;99.90;;;;;;4974037;28;20167;-88
2023/10/14 06:30:53;;;;;;;12.60;2.90;;;11.40;99.90;;;;;;4973961;28;20054;-88
2023/10/14 06:33:26;;;;;;;10.90;2.70;;;11.40;99.90;;;;;;4974334;28;20282;-89
2023/10/14 06:35:52;;;;;;;16.37;3.33;;;11.50;99.90;;;;;;4973014;28;20446;-89
2023/10/14 06:38:19;;;;;;;13.17;2.60;;;11.50;99.90;;;;;;4973982;28;20318;-88
2023/10/14 06:40:52;;;;;;;15.63;2.80;;;11.50;99.90;;;;;;4973717;28;20282;-89
2023/10/14 06:43:19;;;;;;;13.33;2.77;;;11.50;99.90;;;;;;4973779;28;20298;-88
2023/10/14 06:45:46;;;;;;;16.37;3.03;;;11.50;99.90;;;;;;4973864;28;20365;-88
2023/10/14 06:48:12;;;;;;;15.73;3.43;;;11.60;99.90;;;;;;4973984;28;20278;-88
2023/10/14 06:50:41;;;;;;;15.97;2.73;;;11.60;99.90;;;;;;4973730;28;20345;-79
2023/10/14 06:53:10;;;;;;;25.60;4.37;;;11.60;99.90;;;;;;4977133;28;20394;-87
2023/10/14 06:55:37;;;;;;;15.80;2.93;;;11.60;99.90;;;;;;4977451;28;20646;-87
2023/10/14 06:58:08;;;;;;;18.23;3.30;;;11.60;99.90;;;;;;4976460;28;20374;-86
2023/10/14 07:00:37;;;;;;;17.20;3.30;;;11.60;99.90;;;;;;4977617;28;20345;-88
2023/10/14 07:03:06;;;;;;;14.60;3.50;;;11.60;99.90;;;;;;4977200;28;20352;-88
2023/10/14 07:05:43;;;;;;;15.13;3.23;;;11.60;99.90;;;;;;4977592;28;20282;-87
2023/10/14 07:08:11;;;;;;;17.80;3.63;;;11.70;99.90;;;;;;4983479;28;20262;-85
2023/10/14 07:10:38;;;;;;;18.93;3.37;;;11.70;99.90;;;;;;4977768;28;20286;-87
2023/10/14 07:13:04;;;;;;;14.13;3.10;;;11.70;99.90;;;;;;4977091;28;20355;-82
2023/10/14 07:15:31;;;;;;;15.33;3.33;;;11.70;99.90;;;;;;4976285;28;20324;-88
2023/10/14 07:18:01;;;;;;;21.07;3.83;;;11.80;99.90;;;;;;4976840;28;20279;-86
2023/10/14 07:20:30;;;;;;;20.73;3.10;;;11.80;99.90;;;;;;4975873;28;20294;-86
2023/10/14 07:23:00;;;;;;;13.17;2.90;;;11.90;99.90;;;;;;4976684;28;21258;-88
2023/10/14 07:25:34;;;;;;;14.77;2.50;;;11.90;99.90;;;;;;4977138;28;20299;-87
2023/10/14 07:28:07;;;;;;;14.60;3.03;;;11.90;99.90;;;;;;4976841;28;20282;-88
2023/10/14 07:30:34;;;;;;;12.67;2.70;;;12.00;99.90;;;;;;4976869;28;20282;-88
2023/10/14 07:33:01;;;;;;;13.00;3.70;;;12.00;99.90;;;;;;4976500;28;20785;-88
2023/10/14 07:35:27;;;;;;;15.10;3.20;;;12.10;99.90;;;;;;4976692;28;20369;-87
2023/10/14 07:37:53;;;;;;;14.60;3.60;;;12.20;99.90;;;;;;4976689;28;20381;-87
2023/10/14 07:40:23;;;;;;;14.60;3.30;;;12.30;99.90;;;;;;4976866;28;20050;-87
2023/10/14 07:42:53;;;;;;;13.73;4.67;;;12.40;99.90;;;;;;4976400;28;20341;-86
2023/10/14 07:45:28;;;;;;;13.97;2.70;;;12.40;99.90;;;;;;4975562;28;20329;-88
2023/10/14 07:47:56;;;;;;;13.20;2.72;;;12.50;99.90;;;;;;4976343;28;20778;-88
2023/10/14 07:50:22;;;;;;;15.03;3.03;;;12.60;99.90;;;;;;4975696;28;20372;-87
2023/10/14 07:52:48;;;;;;;10.30;2.80;;;12.60;99.90;;;;;;4976566;28;20289;-87
2023/10/14 07:55:22;;;;;;;11.27;2.53;;;12.70;99.90;;;;;;4975475;28;20286;-87
2023/10/14 07:57:49;;;;;;;13.57;3.03;;;12.70;99.90;;;;;;4975432;28;20082;-86
2023/10/14 08:00:15;;;;;;;13.70;3.00;;;12.70;99.90;;;;;;4976378;28;20353;-87
2023/10/14 08:02:42;;;;;;;13.90;2.90;;;12.80;99.90;;;;;;4976032;28;20298;-86
2023/10/14 08:05:09;;;;;;;11.70;3.10;;;12.80;99.90;;;;;;4975659;28;20353;-88
2023/10/14 08:07:42;;;;;;;11.87;2.50;;;12.90;99.90;;;;;;4975434;28;20287;-86
2023/10/14 08:10:18;;;;;;;13.10;3.07;;;12.90;99.90;;;;;;4976158;28;20282;-86
2023/10/14 08:12:45;;;;;;;11.30;2.47;;;12.90;99.90;;;;;;4976008;28;20278;-86
2023/10/14 08:15:11;;;;;;;13.43;3.00;;;12.90;99.90;;;;;;4975743;28;20294;-85
2023/10/14 08:17:37;;;;;;;18.13;3.27;;;13.00;99.90;;;;;;4975587;28;20411;-87
2023/10/14 08:20:12;;;;;;;14.93;3.00;;;13.00;99.90;;;;;;4976065;28;20414;-86
2023/10/14 08:22:44;;;;;;;10.40;1.97;;;13.00;99.90;;;;;;4976258;28;20050;-87
2023/10/14 08:25:11;;;;;;;11.20;2.73;;;13.10;99.90;;;;;;4975790;28;20362;-83
2023/10/14 08:27:36;;;;;;;13.10;2.80;;;13.20;99.90;;;;;;4976033;28;20703;-83
2023/10/14 08:30:10;;;;;;;10.13;2.40;;;13.20;99.90;;;;;;4974825;28;20321;-84
2023/10/14 08:32:44;;;;;;;9.07;2.13;;;13.20;99.90;;;;;;4976001;28;20080;-84
2023/10/14 08:35:17;;;;;;;14.33;2.87;;;13.30;99.90;;;;;;4975817;28;20793;-84
2023/10/14 08:37:48;;;;;;;10.27;2.30;;;13.20;99.90;;;;;;4975852;28;20324;-86
2023/10/14 08:40:22;;;;;;;12.13;1.90;;;13.10;99.90;;;;;;4975746;28;20278;-83
2023/10/14 08:42:53;;;;;;;11.93;2.28;;;13.10;99.90;;;;;;4975204;28;20302;-85
2023/10/14 08:45:21;;;;;;;11.83;2.73;;;13.00;99.90;;;;;;4974837;28;20054;-84
2023/10/14 08:47:51;;;;;;;12.90;2.47;;;13.00;99.90;;;;;;4974480;28;20291;-85
2023/10/14 08:50:24;;;;;;;11.83;2.77;;;13.00;99.90;;;;;;4974359;28;20811;-80
2023/10/14 08:52:56;;;;;;;10.57;2.93;;;13.00;99.90;;;;;;4975835;28;20274;-84
2023/10/14 08:55:22;;;;;;;13.03;2.47;;;13.00;99.90;;;;;;4974292;28;20287;-78
2023/10/14 08:57:49;;;;;;;13.40;2.37;;;13.00;99.90;;;;;;4974374;28;20294;-79
2023/10/14 09:00:19;;;;;;;9.73;2.27;;;13.10;99.90;;;;;;4975438;28;20770;-79
2023/10/14 09:02:51;;;;;;;11.30;2.27;;;13.10;99.90;;;;;;4975111;28;20375;-77
2023/10/14 09:05:18;;;;;;;12.83;3.00;;;13.10;99.90;;;;;;4975149;28;20320;-81
2023/10/14 09:07:45;;;;;;;12.33;2.67;;;13.10;99.90;;;;;;4964133;28;20690;-82
2023/10/14 09:10:11;;;;;;;11.27;2.80;;;13.20;99.90;;;;;;4959602;28;20671;-81
2023/10/14 09:12:38;;;;;;;16.63;3.40;;;13.20;99.90;;;;;;4955844;28;20282;-80
2023/10/14 09:15:04;;;;;;;11.93;2.30;;;13.20;99.90;;;;;;4960010;28;20373;-80
2023/10/14 09:17:30;;;;;;;15.00;3.43;;;13.30;99.90;;;;;;4955528;29;20608;-79
2023/10/14 09:19:56;;;;;;;14.07;3.20;;;13.30;99.90;;;;;;4955210;28;20291;-85
2023/10/14 09:22:27;;;;;;;13.80;3.07;;;13.20;99.90;;;;;;4968668;28;20134;-87
2023/10/14 09:24:58;;;;;;;10.87;2.63;;;13.20;99.90;;;;;;4975018;28;20401;-87
2023/10/14 09:27:26;;;;;;;15.60;3.70;;;13.10;99.90;;;;;;4974865;28;20332;-78
2023/10/14 09:29:57;;;;;;;15.17;2.20;;;13.00;99.90;;;;;;4974629;28;20133;-77
2023/10/14 09:32:23;;;;;;;18.13;3.07;;;13.00;99.90;;;;;;4974758;28;20278;-76
2023/10/14 09:34:55;;;;;;;12.17;2.43;;;13.00;99.90;;;;;;4974718;28;20281;-77
2023/10/14 09:37:22;;;;;;;10.77;2.87;;;13.00;99.90;;;;;;4974382;28;20282;-77
2023/10/14 09:39:49;;;;;;;10.47;2.50;;;13.20;99.90;;;;;;4974491;28;20318;-77
2023/10/14 09:42:17;;;;;;;15.73;3.47;;;13.30;99.90;;;;;;4974085;28;20298;-76
2023/10/14 09:44:47;;;;;;;9.20;2.10;;;13.50;99.90;;;;;;4972889;28;20078;-76
2023/10/14 09:47:14;;;;;;;8.47;2.00;;;13.60;99.90;;;;;;4974284;28;20377;-74
2023/10/14 09:49:43;;;;;;;10.37;2.33;;;13.70;99.90;;;;;;4974363;28;20285;-78
2023/10/14 09:52:14;;;;;;;8.27;1.73;;;13.60;99.90;;;;;;4974094;28;20290;-78
2023/10/14 09:54:42;;;;;;;5.83;1.40;;;13.60;99.90;;;;;;4974498;28;20079;-80
2023/10/14 09:57:12;;;;;;;6.43;1.47;;;13.50;99.90;;;;;;4973881;28;20314;-82
2023/10/14 09:59:44;;;;;;;4.70;1.20;;;13.40;99.90;;;;;;4973629;28;20094;-84
2023/10/14 10:02:11;;;;;;;8.40;1.53;;;13.40;99.90;;;;;;4974094;28;20349;-80
2023/10/14 10:04:42;;;;;;;8.50;1.87;;;13.30;99.90;;;;;;4974291;28;20702;-81
2023/10/14 10:07:44;;;;;;;12.07;1.80;;;13.30;99.90;;;;;;4974153;28;20054;-76
2023/10/14 10:10:14;;;;;;;10.33;2.00;;;13.20;99.90;;;;;;4974093;28;20356;-75
2023/10/14 10:12:42;;;;;;;9.00;2.00;;;13.10;99.90;;;;;;4974379;28;20285;-75
2023/10/14 10:15:08;;;;;;;9.03;1.70;;;13.10;99.90;;;;;;4973895;28;20304;-75
2023/10/14 10:17:39;;;;;;;9.50;1.83;;;13.00;99.90;;;;;;4973978;28;20286;-78
2023/10/14 10:20:12;;;;;;;7.87;2.00;;;13.10;99.90;;;;;;4973547;28;20149;-76
2023/10/14 10:22:50;;;;;;;10.67;1.90;;;13.10;99.90;;;;;;4974280;28;20338;-75
2023/10/14 10:25:17;;;;;;;11.17;2.00;;;13.10;99.90;;;;;;4972957;28;20361;-75
2023/10/14 10:27:44;;;;;;;12.17;2.37;;;13.10;99.90;;;;;;4976079;28;20298;-76
2023/10/14 10:30:13;;;;;;;11.07;2.67;;;13.10;99.90;;;;;;4977658;28;20278;-77
2023/10/14 10:32:41;;;;;;;16.87;2.60;;;13.20;99.90;;;;;;4977898;28;20042;-83
2023/10/14 10:35:07;;;;;;;9.70;2.07;;;13.20;99.90;;;;;;4977869;28;20333;-88
2023/10/14 10:37:42;;;;;;;12.43;2.30;;;13.30;99.90;;;;;;4978048;28;20322;-83
2023/10/14 10:40:12;;;;;;;13.18;2.65;;;13.30;99.90;;;;;;4976791;28;20047;-84
2023/10/14 10:42:41;;;;;;;12.07;2.40;;;13.30;99.90;;;;;;4977872;28;20048;-84
2023/10/14 10:45:31;;;;;;;10.03;2.30;;;13.40;99.90;;;;;;4977346;28;20507;-85
2023/10/14 10:47:59;;;;;;;11.37;3.20;;;13.40;99.90;;;;;;4977946;28;20281;-85
2023/10/14 10:50:27;;;;;;;10.87;2.43;;;13.50;99.90;;;;;;4976415;28;21189;-84
2023/10/14 10:53:08;;;;;;;12.33;2.80;;;13.50;99.90;;;;;;4977549;28;20318;-82
2023/10/14 10:55:38;;;;;;;16.57;3.50;;;13.50;99.90;;;;;;4977545;28;20365;-85
2023/10/14 10:58:07;;;;;;;11.57;2.73;;;13.50;99.90;;;;;;4977598;28;20058;-74
2023/10/14 11:00:33;;;;;;;11.73;2.50;;;13.50;99.90;;;;;;4977622;28;20062;-82
2023/10/14 11:03:00;;;;;;;13.33;3.57;;;13.60;99.90;;;;;;4977365;28;20294;-80
2023/10/14 11:05:28;;;;;;;11.23;2.90;;;13.70;99.90;;;;;;4974347;28;20476;-81
2023/10/14 11:07:55;;;;;;;12.50;2.80;;;13.80;99.90;;;;;;4976065;28;20053;-81
2023/10/14 11:10:29;;;;;;;13.20;3.23;;;13.90;99.90;;;;;;4975309;28;20501;-80
2023/10/14 11:12:56;;;;;;;13.37;3.40;;;13.90;99.90;;;;;;4975822;28;20053;-79
2023/10/14 11:15:25;;;;;;;10.20;3.03;;;13.80;99.90;;;;;;4976092;28;20290;-83
2023/10/14 11:17:52;;;;;;;12.30;2.87;;;13.70;99.90;;;;;;4987949;28;20481;-80
2023/10/14 11:20:20;;;;;;;11.30;2.73;;;13.50;99.90;;;;;;4991080;28;20286;-80
2023/10/14 11:22:46;;;;;;;12.97;2.77;;;13.40;99.90;;;;;;4982910;28;20046;-82
2023/10/14 11:25:13;;;;;;;16.97;3.33;;;13.40;99.90;;;;;;4991836;28;20133;-81
2023/10/14 11:27:41;;;;;;;10.53;2.20;;;13.40;99.90;;;;;;4976235;28;20503;-82
2023/10/14 11:30:11;;;;;;;9.83;2.30;;;13.50;99.90;;;;;;4976350;28;20050;-80
2023/10/14 11:32:43;;;;;;;12.00;2.23;;;13.50;99.90;;;;;;4974452;28;20123;-84
2023/10/14 11:35:10;;;;;;;13.00;2.53;;;13.50;99.90;;;;;;4976306;28;20410;-83
2023/10/14 11:37:36;;;;;;;11.37;2.30;;;13.40;99.90;;;;;;4975461;28;20101;-83
2023/10/14 11:40:14;;;;;;;12.27;3.13;;;13.30;99.90;;;;;;4975918;28;20051;-82
2023/10/14 11:42:41;;;;;;;15.23;2.77;;;13.30;99.90;;;;;;4969132;28;20062;-81
2023/10/14 11:45:07;;;;;;;13.80;2.93;;;13.20;99.90;;;;;;4974989;28;20293;-84
2023/10/14 11:47:37;;;;;;;11.63;2.80;;;13.10;99.90;;;;;;4975619;28;20055;-82
2023/10/14 11:50:12;;;;;;;14.73;2.90;;;13.10;99.90;;;;;;4976103;28;20506;-81
2023/10/14 11:52:43;;;;;;;13.60;3.10;;;13.10;99.90;;;;;;4969750;28;20345;-80
2023/10/14 11:55:14;;;;;;;15.53;2.93;;;13.10;99.90;;;;;;4976562;28;20278;-83
2023/10/14 11:57:47;;;;;;;12.00;3.37;;;13.20;99.90;;;;;;4974839;28;20282;-87
2023/10/14 12:00:17;;;;;;;13.83;3.67;;;13.30;99.90;;;;;;4975832;28;20054;-77
2023/10/14 12:02:52;;;;;;;14.93;3.50;;;13.40;99.90;;;;;;4974858;28;20062;-84
2023/10/14 12:05:19;;;;;;;16.13;4.07;;;13.50;99.90;;;;;;4975753;28;20047;-88
2023/10/14 12:07:51;;;;;;;15.60;3.87;;;13.50;99.90;;;;;;4975395;28;20058;-84
2023/10/14 12:10:17;;;;;;;16.60;3.13;;;13.60;99.90;;;;;;4975875;28;20086;-85
2023/10/14 12:12:52;;;;;;;16.40;3.77;;;13.70;99.90;;;;;;4973616;28;20832;-89
2023/10/14 12:15:20;;;;;;;;;;;13.60;99.90;;;;;;4975333;28;20055;-85
2023/10/14 12:17:46;;;;;;;11.70;2.67;;;13.60;99.90;;;;;;4975606;28;20038;-86
2023/10/14 12:20:11;;;;;;;15.87;3.37;;;13.50;99.90;;;;;;4975511;28;20298;-86
2023/10/14 12:22:39;;;;;;;18.30;3.47;;;13.50;99.90;;;;;;4973140;28;20050;-86
2023/10/14 12:25:05;;;;;;;13.70;2.83;;;13.50;99.90;;;;;;4975671;28;20054;-84
2023/10/14 12:27:33;;;;;;;16.63;3.33;;;13.50;99.90;;;;;;4974875;28;20369;-80
2023/10/14 12:30:00;;;;;;;12.00;2.83;;;13.50;99.90;;;;;;4975922;28;20450;-84
2023/10/14 12:32:30;;;;;;;13.27;3.17;;;13.40;99.90;;;;;;4975425;28;20777;-79
2023/10/14 12:34:58;;;;;;;17.83;3.27;;;13.50;99.90;;;;;;4975946;28;20459;-80
2023/10/14 12:37:24;;;;;;;15.20;3.37;;;13.40;99.90;;;;;;4975366;28;20287;-76
2023/10/14 12:40:04;;;;;;;16.87;3.03;;;13.40;99.90;;;;;;4975346;28;20365;-85
2023/10/14 12:42:47;;;;;;;15.80;3.63;;;13.50;99.90;;;;;;4974524;28;20474;-75
2023/10/14 12:45:25;;;;;;;14.90;3.13;;;13.60;99.90;;;;;;4975620;28;20099;-75
2023/10/14 12:47:58;;;;;;;15.10;3.40;;;13.70;99.90;;;;;;4975439;28;20293;-76
2023/10/14 12:50:25;;;;;;;13.20;2.57;;;13.70;99.90;;;;;;4977346;28;20282;-87
2023/10/14 12:53:00;;;;;;;12.30;2.50;;;13.70;99.90;;;;;;4975691;28;20369;-76
2023/10/14 12:55:26;;;;;;;12.63;3.00;;;13.70;99.90;;;;;;4975097;28;20345;-85
2023/10/14 12:57:54;;;;;;;10.67;2.60;;;13.70;99.90;;;;;;4975041;28;20059;-85
2023/10/14 13:00:29;;;;;;;8.60;2.23;;;13.70;99.90;;;;;;4975043;28;20286;-78
2023/10/14 13:02:59;;;;;;;14.70;2.33;;;13.60;99.90;;;;;;4975254;28;20729;-80
2023/10/14 13:05:26;;;;;;;9.63;2.60;;;13.60;99.90;;;;;;4975086;28;20286;-73
2023/10/14 13:07:52;;;;;;;13.07;3.30;;;13.60;99.90;;;;;;4974020;28;20379;-74
2023/10/14 13:10:19;;;;;;;9.37;2.27;;;13.60;99.90;;;;;;4973878;28;20043;-74
2023/10/14 13:12:49;;;;;;;15.53;3.20;;;13.60;99.90;;;;;;4974828;28;20042;-74
2023/10/14 13:15:25;;;;;;;13.63;2.90;;;13.60;99.90;;;;;;4974837;28;20630;-74
2023/10/14 13:17:56;;;;;;;17.20;3.50;;;13.60;99.90;;;;;;4975487;28;20369;-75
2023/10/14 13:20:28;;;;;;;16.33;3.20;;;13.50;99.90;;;;;;4974409;28;20687;-74
2023/10/14 13:23:03;;;;;;;14.30;2.67;;;13.50;99.90;;;;;;4974612;28;20338;-75
2023/10/14 13:25:36;;;;;;;11.00;2.67;;;13.50;99.90;;;;;;4974712;28;20282;-73
2023/10/14 13:28:08;;;;;;;14.87;3.33;;;13.40;99.90;;;;;;4973633;28;20689;-72